Portada
METAR-TAF:

METAR-TAF

Aeropuertos :

Centralia Municipal Airport

Centralia, Illinois, Estados Unidos

latitud: 38-30-53N, longitud: 089-05-32W, altitud: 163 m

Observación

El informe se hizo hace 39 minutos, a las 15:35 UTC
Viento calma
Temperatura 30°C
Humedad 52%
Presión 1027 hPa
Visibilidad: 16.1 km
Nubes dispersas a una altura de 4100 ft
Nubes dispersas a una altura de 5000 ft

METAR: KENL 201535Z AUTO 00000KT 10SM SCT041 SCT050 30/19 A3032 RMK AO2 T03000185

Hora: 11:14 (16:14 UTC)


TAF: falta

Observaciones y pronósticos meteorológicos de más de 4000 aeropuertos (mensajes METAR y TAF).

Los puntos amarillos y rojos representan las estaciones disponibles.

Ponga el ratón en el punto deseado para ver el nombre de la estación.

Haga clic para ver las observaciones y los pronósticos meteorológicos.

Para cambiar el mapa : haga clic en los botones verdes con una cruz de color negro para hacer un zoom, en el botón verde con un guión para alejar o en las flechas verdes para mapas adyacentes.


METAR-TAF: